Time;durP1;ratioP1;P1;durP2;ratioP2;P2;SDS_P1;SDS_P2;PMS_P1;PMS_P2;Temp;Humidity;BMP_temperature;BMP_pressure;BME280_temperature;BME280_humidity;BME280_pressure;Samples;Min_cycle;Max_cycle;Signal;HPM_P1;HPM_P2
2022/01/08 00:00:47;;;;;;;3.70;2.63;;;;;;;-141.29;100.00;58932.97;5075189;28;20457;-75
2022/01/08 00:03:14;;;;;;;5.47;3.03;;;;;;;-141.29;100.00;58932.97;5075475;28;20434;-76
2022/01/08 00:05:41;;;;;;;4.17;2.77;;;;;;;-141.29;100.00;58932.97;5075349;28;20434;-76
2022/01/08 00:08:09;;;;;;;5.47;3.60;;;;;;;-141.29;100.00;58932.97;5075129;28;20450;-75
2022/01/08 00:10:38;;;;;;;3.80;2.50;;;;;;;-141.29;100.00;58932.97;5075007;28;20488;-75
2022/01/08 00:13:07;;;;;;;5.23;3.10;;;;;;;-141.29;100.00;58932.97;5074891;28;20434;-74
2022/01/08 00:15:35;;;;;;;6.57;4.43;;;;;;;-141.29;100.00;58932.97;5074484;28;20819;-73
2022/01/08 00:18:02;;;;;;;5.70;3.70;;;;;;;-141.29;100.00;58932.97;5074786;28;20438;-74
2022/01/08 00:20:30;;;;;;;5.93;3.80;;;;;;;-141.29;100.00;58932.97;5074904;28;20438;-75
2022/01/08 00:23:00;;;;;;;5.57;3.90;;;;;;;-141.29;100.00;58932.97;5074582;28;20494;-74
2022/01/08 00:25:32;;;;;;;3.83;2.50;;;;;;;-141.29;100.00;58932.97;5073373;28;20508;-73
2022/01/08 00:27:59;;;;;;;3.50;2.57;;;;;;;-141.29;100.00;58932.97;5074823;28;20944;-77
2022/01/08 00:30:30;;;;;;;4.83;3.03;;;;;;;-141.29;100.00;58932.97;5074380;28;20461;-73
2022/01/08 00:32:58;;;;;;;6.70;4.10;;;;;;;-141.29;100.00;58932.97;5074395;28;20451;-76
2022/01/08 00:35:28;;;;;;;8.77;5.07;;;;;;;-141.29;100.00;58932.97;5074846;28;20439;-75
2022/01/08 00:37:57;;;;;;;8.33;4.10;;;;;;;-141.29;100.00;58932.97;5075035;28;20430;-75
2022/01/08 00:40:29;;;;;;;7.83;5.20;;;;;;;-141.29;100.00;58932.97;5074424;28;20856;-73
2022/01/08 00:43:01;;;;;;;7.73;3.60;;;;;;;-141.29;100.00;58932.97;5074614;28;20506;-77
2022/01/08 00:45:48;;;;;;;3.23;1.83;;;;;;;-141.29;100.00;58932.97;5074687;28;20478;-74
2022/01/08 00:48:16;;;;;;;6.20;3.27;;;;;;;-141.29;100.00;58932.97;5074323;28;20443;-74
2022/01/08 00:50:43;;;;;;;4.33;2.70;;;;;;;-141.29;100.00;58932.97;5073938;28;20446;-74
2022/01/08 00:53:17;;;;;;;3.90;2.27;;;;;;;-141.29;100.00;58932.97;5074732;28;20922;-76
2022/01/08 00:55:45;;;;;;;5.10;3.03;;;;;;;-141.29;100.00;58932.97;5074091;28;20443;-75
2022/01/08 00:58:12;;;;;;;4.67;3.33;;;;;;;-141.29;100.00;58932.97;5074051;28;20461;-74
2022/01/08 01:00:43;;;;;;;4.67;2.97;;;;;;;-141.29;100.00;58932.97;5074335;28;20442;-75
2022/01/08 01:03:11;;;;;;;3.20;2.27;;;;;;;-141.29;100.00;58932.97;5075318;28;20496;-74
2022/01/08 01:05:38;;;;;;;6.00;3.40;;;;;;;-141.29;100.00;58932.97;5075365;28;20530;-74
2022/01/08 01:08:07;;;;;;;5.03;2.90;;;;;;;-141.29;100.00;58932.97;5079850;28;20474;-76
2022/01/08 01:10:36;;;;;;;4.47;2.90;;;;;;;-141.29;100.00;58932.97;5074737;28;20789;-74
2022/01/08 01:13:03;;;;;;;5.03;3.13;;;;;;;-141.29;100.00;58932.97;5073706;28;20817;-77
2022/01/08 01:15:31;;;;;;;4.83;3.30;;;;;;;-141.29;100.00;58932.97;5073978;28;20522;-76
2022/01/08 01:17:59;;;;;;;4.90;3.40;;;;;;;-141.29;100.00;58932.97;5073395;28;20442;-73
2022/01/08 01:20:27;;;;;;;5.13;3.50;;;;;;;-141.29;100.00;58932.97;5073326;28;20967;-74
2022/01/08 01:23:09;;;;;;;7.83;3.30;;;;;;;-141.29;100.00;58932.97;5072153;28;20482;-74
2022/01/08 01:25:39;;;;;;;4.60;3.20;;;;;;;-141.29;100.00;58932.97;5073417;28;21004;-74
2022/01/08 01:28:24;;;;;;;4.53;3.23;;;;;;;-141.29;100.00;58932.97;5073616;28;20443;-76
2022/01/08 01:41:09;;;;;;;4.53;3.30;;;;;;;-141.29;100.00;58932.97;5073461;28;20451;-75
2022/01/08 01:42:33;;;;;;;10.27;5.80;;;;;;;-141.29;100.00;58932.97;5072821;28;20480;-73
2022/01/08 01:47:51;;;;;;;7.27;3.93;;;;;;;-141.29;100.00;58932.97;5034548;28;20516;-74
2022/01/08 01:50:20;;;;;;;8.53;4.13;;;;;;;-141.29;100.00;58932.97;5073140;28;20434;-75
2022/01/08 01:52:50;;;;;;;7.03;2.73;;;;;;;-141.29;100.00;58932.97;5071716;28;20442;-74
2022/01/08 01:55:17;;;;;;;4.13;3.10;;;;;;;-141.29;100.00;58932.97;5072844;28;20430;-74
2022/01/08 01:57:47;;;;;;;10.03;5.50;;;;;;;-141.29;100.00;58932.97;5072819;28;21030;-73
2022/01/08 02:00:17;;;;;;;8.50;4.53;;;;;;;-141.29;100.00;58932.97;5073092;28;20443;-75
2022/01/08 02:02:46;;;;;;;8.33;5.40;;;;;;;-141.29;100.00;58932.97;5072219;28;20493;-76
2022/01/08 02:05:13;;;;;;;9.07;5.50;;;;;;;-141.29;100.00;58932.97;5072761;28;20451;-75
2022/01/08 02:07:43;;;;;;;8.10;4.37;;;;;;;-141.29;100.00;58932.97;5072999;28;20512;-75
2022/01/08 02:10:11;;;;;;;6.17;3.87;;;;;;;-141.29;100.00;58932.97;5072665;28;20452;-75
2022/01/08 02:12:38;;;;;;;6.70;3.63;;;;;;;-141.29;100.00;58932.97;5072252;28;20447;-74
2022/01/08 02:15:06;;;;;;;7.67;4.33;;;;;;;-141.29;100.00;58932.97;5072724;28;20488;-75
2022/01/08 02:17:34;;;;;;;5.37;3.60;;;;;;;-141.29;100.00;58932.97;5072520;28;20438;-75
2022/01/08 02:20:03;;;;;;;6.93;3.57;;;;;;;-141.29;100.00;58932.97;5071585;28;20455;-74
2022/01/08 02:22:40;;;;;;;5.07;3.40;;;;;;;-141.29;100.00;58932.97;5072307;28;20474;-73
2022/01/08 02:25:11;;;;;;;4.63;3.33;;;;;;;-141.29;100.00;58932.97;5072768;28;20438;-75
2022/01/08 02:27:38;;;;;;;4.70;2.90;;;;;;;-141.29;100.00;58932.97;5071382;28;20542;-76
2022/01/08 02:30:07;;;;;;;6.17;3.70;;;;;;;-141.29;100.00;58932.97;5072641;28;20884;-73
2022/01/08 02:32:35;;;;;;;3.77;2.60;;;;;;;-141.29;100.00;58932.97;5071972;28;20965;-74
2022/01/08 02:35:05;;;;;;;4.20;2.90;;;;;;;-141.29;100.00;58932.97;5071985;28;20883;-74
2022/01/08 02:37:33;;;;;;;5.67;3.07;;;;;;;-141.29;100.00;58932.97;5072394;28;20450;-74
2022/01/08 02:40:06;;;;;;;5.00;3.60;;;;;;;-141.29;100.00;58932.97;5071946;28;20473;-75
2022/01/08 02:42:39;;;;;;;6.17;3.63;;;;;;;-141.29;100.00;58932.97;5072257;28;20992;-74
2022/01/08 02:45:07;;;;;;;5.27;3.40;;;;;;;-141.29;100.00;58932.97;5072289;28;20439;-74
2022/01/08 02:47:34;;;;;;;5.13;3.23;;;;;;;-141.29;100.00;58932.97;5072516;28;20459;-75
2022/01/08 02:50:01;;;;;;;6.13;3.30;;;;;;;-141.29;100.00;58932.97;5071864;28;20439;-76
2022/01/08 02:52:30;;;;;;;4.23;2.30;;;;;;;-141.29;100.00;58932.97;5072475;28;20438;-74
2022/01/08 02:54:58;;;;;;;3.87;2.00;;;;;;;-141.29;100.00;58932.97;5072102;28;20446;-74
2022/01/08 02:57:27;;;;;;;4.60;2.70;;;;;;;-141.29;100.00;58932.97;5072108;28;20442;-74
2022/01/08 02:59:54;;;;;;;2.57;2.13;;;;;;;-141.29;100.00;58932.97;5071977;28;20434;-74
2022/01/08 03:02:22;;;;;;;4.33;2.80;;;;;;;-141.29;100.00;58932.97;5070493;28;20486;-75
2022/01/08 03:04:49;;;;;;;4.97;2.90;;;;;;;-141.29;100.00;58932.97;5071974;28;20451;-74
2022/01/08 03:07:20;;;;;;;7.63;4.00;;;;;;;-141.29;100.00;58932.97;5070784;28;20455;-74
2022/01/08 03:09:56;;;;;;;6.10;3.93;;;;;;;-141.29;100.00;58932.97;5070888;28;20445;-74
2022/01/08 03:12:24;;;;;;;4.87;3.03;;;;;;;-141.29;100.00;58932.97;5071925;28;20442;-74
2022/01/08 03:14:52;;;;;;;8.17;3.77;;;;;;;-141.29;100.00;58932.97;5071944;28;20981;-74
2022/01/08 03:17:19;;;;;;;5.37;2.87;;;;;;;-141.29;100.00;58932.97;5071660;28;20522;-74
2022/01/08 03:19:52;;;;;;;5.93;3.37;;;;;;;-141.29;100.00;58932.97;5076094;28;20438;-74
2022/01/08 03:22:21;;;;;;;2.67;2.10;;;;;;;-141.29;100.00;58932.97;5076666;28;20470;-74
2022/01/08 03:24:52;;;;;;;4.00;2.53;;;;;;;-141.29;100.00;58932.97;5070823;28;20476;-74
2022/01/08 03:27:19;;;;;;;3.77;2.87;;;;;;;-141.29;100.00;58932.97;5070826;28;20446;-74
2022/01/08 03:29:47;;;;;;;6.10;3.80;;;;;;;-141.29;100.00;58932.97;5071532;28;20493;-74
2022/01/08 03:32:14;;;;;;;6.90;3.80;;;;;;;-141.29;100.00;58932.97;5071881;28;20443;-74
2022/01/08 03:34:42;;;;;;;4.53;2.47;;;;;;;-141.29;100.00;58932.97;5072137;28;20443;-74
2022/01/08 03:37:13;;;;;;;4.43;3.37;;;;;;;-141.29;100.00;58932.97;5070496;28;20461;-74
2022/01/08 03:39:44;;;;;;;4.43;3.17;;;;;;;-141.29;100.00;58932.97;5071492;28;20434;-74
2022/01/08 03:42:15;;;;;;;5.40;2.97;;;;;;;-141.29;100.00;58932.97;5071389;28;20555;-74
2022/01/08 03:44:43;;;;;;;9.33;4.70;;;;;;;-141.29;100.00;58932.97;5071745;28;20926;-74
2022/01/08 03:47:30;;;;;;;6.10;3.50;;;;;;;-141.29;100.00;58932.97;5071231;28;20482;-74
2022/01/08 03:49:59;;;;;;;11.40;5.50;;;;;;;-141.29;100.00;58932.97;5071115;28;20482;-74
2022/01/08 03:52:27;;;;;;;18.30;8.27;;;;;;;-141.29;100.00;58932.97;5071219;28;20454;-74
2022/01/08 03:54:54;;;;;;;17.23;7.30;;;;;;;-141.29;100.00;58932.97;5071186;28;20442;-75
2022/01/08 03:57:27;;;;;;;8.93;4.20;;;;;;;-141.29;100.00;58932.97;5070574;28;20472;-73
2022/01/08 03:59:54;;;;;;;11.40;5.53;;;;;;;-141.29;100.00;58932.97;5071536;28;20545;-76
2022/01/08 04:02:24;;;;;;;11.17;5.17;;;;;;;-141.29;100.00;58932.97;5071456;28;20540;-73
2022/01/08 04:04:58;;;;;;;7.00;3.60;;;;;;;-141.29;100.00;58932.97;5072606;28;20951;-74
2022/01/08 04:07:28;;;;;;;5.40;2.97;;;;;;;-141.29;100.00;58932.97;5075420;28;20434;-74
2022/01/08 04:09:56;;;;;;;4.30;2.73;;;;;;;-141.29;100.00;58932.97;5074751;28;20450;-74
2022/01/08 04:12:34;;;;;;;4.90;2.80;;;;;;;-141.29;100.00;58932.97;5075818;28;20442;-75
2022/01/08 04:15:07;;;;;;;5.83;3.53;;;;;;;-141.29;100.00;58932.97;5074995;28;20466;-73
2022/01/08 04:17:37;;;;;;;7.17;3.27;;;;;;;-141.29;100.00;58932.97;5074735;28;20454;-74
2022/01/08 04:20:09;;;;;;;3.13;1.93;;;;;;;-141.29;100.00;58932.97;5074732;28;20442;-74
2022/01/08 04:22:43;;;;;;;3.80;2.07;;;;;;;-141.29;100.00;58932.97;5073513;28;20479;-73
2022/01/08 04:25:11;;;;;;;3.03;2.00;;;;;;;-141.29;100.00;58932.97;5074823;28;20442;-74
2022/01/08 04:27:42;;;;;;;4.03;2.43;;;;;;;-141.29;100.00;58932.97;5074218;28;20993;-73
2022/01/08 04:30:10;;;;;;;4.60;2.63;;;;;;;-141.29;100.00;58932.97;5075060;28;20439;-73
2022/01/08 04:32:40;;;;;;;5.70;2.90;;;;;;;-141.29;100.00;58932.97;5074654;28;20457;-74
2022/01/08 04:35:08;;;;;;;4.33;2.30;;;;;;;-141.29;100.00;58932.97;5074906;28;20430;-72
2022/01/08 04:37:35;;;;;;;3.27;2.20;;;;;;;-141.29;100.00;58932.97;5074609;28;20431;-74
2022/01/08 04:40:02;;;;;;;6.43;2.57;;;;;;;-141.29;100.00;58932.97;5074693;28;20980;-73
2022/01/08 04:42:29;;;;;;;6.60;3.43;;;;;;;-141.29;100.00;58932.97;5074437;28;20486;-74
2022/01/08 04:44:58;;;;;;;3.80;2.00;;;;;;;-141.29;100.00;58932.97;5074234;28;20447;-74
2022/01/08 04:47:27;;;;;;;8.10;3.80;;;;;;;-141.29;100.00;58932.97;5075072;28;20481;-73
2022/01/08 04:49:54;;;;;;;6.13;3.07;;;;;;;-141.29;100.00;58932.97;5074838;28;20956;-74
2022/01/08 04:52:21;;;;;;;5.93;4.23;;;;;;;-141.29;100.00;58932.97;5074346;28;20435;-74
2022/01/08 04:54:49;;;;;;;5.57;2.93;;;;;;;-141.29;100.00;58932.97;5073935;28;20465;-74
2022/01/08 04:57:17;;;;;;;2.97;2.00;;;;;;;-141.29;100.00;58932.97;5073925;28;21023;-73
2022/01/08 04:59:46;;;;;;;4.43;2.37;;;;;;;-141.29;100.00;58932.97;5073819;28;20446;-74
2022/01/08 05:02:15;;;;;;;2.53;1.73;;;;;;;-141.29;100.00;58932.97;5073961;28;21015;-74
2022/01/08 05:04:45;;;;;;;4.93;2.50;;;;;;;-141.29;100.00;58932.97;5074098;28;20438;-77
2022/01/08 05:07:18;;;;;;;2.73;1.93;;;;;;;-141.29;100.00;58932.97;5074169;28;20448;-75
2022/01/08 05:09:46;;;;;;;3.90;2.13;;;;;;;-141.29;100.00;58932.97;5074108;28;20482;-74
2022/01/08 05:12:14;;;;;;;1.33;1.23;;;;;;;-141.29;100.00;58932.97;5073719;28;20439;-74
2022/01/08 05:14:42;;;;;;;2.83;2.23;;;;;;;-141.29;100.00;58932.97;5073574;28;20447;-74
2022/01/08 05:17:14;;;;;;;1.83;1.50;;;;;;;-141.29;100.00;58932.97;5072712;28;20470;-74
2022/01/08 05:19:47;;;;;;;4.87;2.37;;;;;;;-141.29;100.00;58932.97;5073751;28;20538;-73
2022/01/08 05:22:23;;;;;;;3.23;2.30;;;;;;;-141.29;100.00;58932.97;5074013;28;20439;-76
2022/01/08 05:24:53;;;;;;;4.40;2.90;;;;;;;-141.29;100.00;58932.97;5074092;28;20450;-76
2022/01/08 05:27:20;;;;;;;4.67;2.97;;;;;;;-141.29;100.00;58932.97;5073765;28;20447;-75
2022/01/08 05:29:53;;;;;;;3.80;2.90;;;;;;;-141.29;100.00;58932.97;5073574;28;20435;-75
2022/01/08 05:32:21;;;;;;;5.23;2.90;;;;;;;-141.29;100.00;58932.97;5074298;28;20504;-75
2022/01/08 05:34:54;;;;;;;5.20;3.07;;;;;;;-141.29;100.00;58932.97;5073403;28;20492;-74
2022/01/08 05:37:24;;;;;;;3.37;2.03;;;;;;;-141.29;100.00;58932.97;5073930;28;20502;-74
2022/01/08 05:39:53;;;;;;;3.23;2.10;;;;;;;-141.29;100.00;58932.97;5073460;28;20446;-76
2022/01/08 05:42:21;;;;;;;2.37;1.20;;;;;;;-141.29;100.00;58932.97;5073137;28;20431;-75
2022/01/08 05:44:50;;;;;;;2.57;1.87;;;;;;;-141.29;100.00;58932.97;5072963;28;20555;-75
2022/01/08 05:47:20;;;;;;;3.37;1.67;;;;;;;-141.29;100.00;58932.97;5071459;28;20478;-77
2022/01/08 05:49:51;;;;;;;2.00;1.63;;;;;;;-141.29;100.00;58932.97;5073605;28;20431;-76
2022/01/08 05:52:22;;;;;;;2.00;1.70;;;;;;;-141.29;100.00;58932.97;5072787;28;20450;-75
2022/01/08 05:54:51;;;;;;;2.07;1.70;;;;;;;-141.29;100.00;58932.97;5072948;28;20797;-75
2022/01/08 05:57:20;;;;;;;1.97;1.57;;;;;;;-141.29;100.00;58932.97;5073698;28;20443;-75
2022/01/08 05:59:51;;;;;;;2.67;1.63;;;;;;;-141.29;100.00;58932.97;5072132;28;20526;-76
2022/01/08 06:02:20;;;;;;;2.13;1.93;;;;;;;-141.29;100.00;58932.97;5073317;28;20459;-76
2022/01/08 06:04:48;;;;;;;1.50;1.20;;;;;;;-141.29;100.00;58932.97;5072727;28;20482;-74
2022/01/08 06:07:16;;;;;;;4.40;2.23;;;;;;;-141.29;100.00;58932.97;5072962;28;20461;-73
2022/01/08 06:09:44;;;;;;;3.53;2.00;;;;;;;-141.29;100.00;58932.97;5072976;28;20458;-75
2022/01/08 06:12:12;;;;;;;2.27;1.60;;;;;;;-141.29;100.00;58932.97;5072678;28;20435;-74
2022/01/08 06:14:39;;;;;;;3.90;1.83;;;;;;;-141.29;100.00;58932.97;5072465;28;20442;-74
2022/01/08 06:17:10;;;;;;;1.27;0.90;;;;;;;-141.29;100.00;58932.97;5072968;28;20462;-73
2022/01/08 06:19:38;;;;;;;3.83;1.90;;;;;;;-141.29;100.00;58932.97;5072854;28;20446;-75
2022/01/08 06:22:05;;;;;;;4.73;1.90;;;;;;;-141.29;100.00;58932.97;5072739;28;20441;-74
2022/01/08 06:24:36;;;;;;;2.93;1.83;;;;;;;-141.29;100.00;58932.97;5072514;28;20597;-73
2022/01/08 06:27:07;;;;;;;2.57;1.97;;;;;;;-141.29;100.00;58932.97;5077702;28;20454;-73
2022/01/08 06:29:34;;;;;;;3.93;2.60;;;;;;;-141.29;100.00;58932.97;5097462;28;20423;-75
2022/01/08 06:32:02;;;;;;;4.07;2.23;;;;;;;-141.29;100.00;58932.97;5097506;28;20482;-74
2022/01/08 06:34:29;;;;;;;2.83;2.07;;;;;;;-141.29;100.00;58932.97;5084372;28;20439;-74
2022/01/08 06:36:59;;;;;;;3.53;2.30;;;;;;;-141.29;100.00;58932.97;5072595;28;20438;-74
2022/01/08 06:39:30;;;;;;;3.93;2.20;;;;;;;-141.29;100.00;58932.97;5072355;28;20450;-74
2022/01/08 06:42:01;;;;;;;4.70;3.07;;;;;;;-141.29;100.00;58932.97;5071941;28;20997;-75
2022/01/08 06:44:28;;;;;;;27.00;10.67;;;;;;;-141.29;100.00;58932.97;5072072;28;20981;-73
2022/01/08 06:46:56;;;;;;;23.30;12.80;;;;;;;-141.29;100.00;58932.97;5071371;28;20544;-75
2022/01/08 06:49:25;;;;;;;2.97;2.23;;;;;;;-141.29;100.00;58932.97;5071949;28;20851;-74
2022/01/08 06:51:53;;;;;;;5.27;2.57;;;;;;;-141.29;100.00;58932.97;5071849;28;20519;-74
2022/01/08 06:54:20;;;;;;;3.47;2.37;;;;;;;-141.29;100.00;58932.97;5072353;28;20499;-73
2022/01/08 06:56:47;;;;;;;2.10;1.83;;;;;;;-141.29;100.00;58932.97;5074342;28;20447;-76
2022/01/08 06:59:15;;;;;;;4.30;1.63;;;;;;;-141.29;100.00;58932.97;5071582;28;20508;-74
2022/01/08 07:01:43;;;;;;;3.83;2.50;;;;;;;-141.29;100.00;58932.97;5071328;28;20470;-75
2022/01/08 07:04:10;;;;;;;6.23;2.77;;;;;;;-141.29;100.00;58932.97;5071375;28;21005;-73
2022/01/08 07:06:38;;;;;;;6.40;3.23;;;;;;;-141.29;100.00;58932.97;5072159;28;20438;-75
2022/01/08 07:09:06;;;;;;;8.43;4.90;;;;;;;-141.29;100.00;58932.97;5072008;28;20434;-74
2022/01/08 07:11:33;;;;;;;8.20;3.97;;;;;;;-141.29;100.00;58932.97;5071721;28;20828;-74
2022/01/08 07:14:01;;;;;;;4.63;3.43;;;;;;;-141.29;100.00;58932.97;5071664;28;20438;-74
2022/01/08 07:16:30;;;;;;;9.70;5.23;;;;;;;-141.29;100.00;58932.97;5071549;28;20510;-74
2022/01/08 07:18:57;;;;;;;7.67;3.77;;;;;;;-141.29;100.00;58932.97;5072391;28;20466;-74
2022/01/08 07:21:24;;;;;;;3.20;1.73;;;;;;;-141.29;100.00;58932.97;5071716;28;20430;-72
2022/01/08 07:23:53;;;;;;;2.63;2.33;;;;;;;-141.29;100.00;58932.97;5071743;28;20474;-74
2022/01/08 07:26:19;;;;;;;4.77;3.43;;;;;;;-141.29;100.00;58932.97;5071411;28;20449;-74
2022/01/08 07:28:47;;;;;;;5.87;4.43;;;;;;;-141.29;100.00;58932.97;5071401;28;20439;-73
2022/01/08 07:31:14;;;;;;;5.13;3.13;;;;;;;-141.29;100.00;58932.97;5071904;28;20454;-74
2022/01/08 07:33:49;;;;;;;7.53;4.63;;;;;;;-141.29;100.00;58932.97;5071484;28;20473;-72
2022/01/08 07:36:17;;;;;;;3.70;2.90;;;;;;;-141.29;100.00;58932.97;5071846;28;20856;-75
2022/01/08 07:47:06;;;;;;;2.40;1.47;;;;;;;-141.29;100.00;58932.97;5076355;28;20482;-74
2022/01/08 07:49:46;;;;;;;5.60;2.60;;;;;;;-141.29;100.00;58932.97;5076567;28;20442;-73
2022/01/08 07:52:14;;;;;;;4.03;3.10;;;;;;;-141.29;100.00;58932.97;5075054;28;21021;-76
2022/01/08 07:54:43;;;;;;;4.07;2.27;;;;;;;-141.29;100.00;58932.97;5075620;28;20440;-74
2022/01/08 07:57:30;;;;;;;2.07;1.80;;;;;;;-141.29;100.00;58932.97;5076270;28;20437;-76
2022/01/08 08:00:03;;;;;;;2.83;2.00;;;;;;;-141.29;100.00;58932.97;5080230;28;20517;-75
2022/01/08 08:02:30;;;;;;;3.97;2.20;;;;;;;-141.29;100.00;58932.97;5079150;28;20446;-73
2022/01/08 08:05:14;;;;;;;3.10;1.90;;;;;;;-141.29;100.00;58932.97;5077264;28;20490;-73
2022/01/08 08:07:49;;;;;;;4.33;2.50;;;;;;;-141.29;100.00;58932.97;5080108;28;20442;-74
2022/01/08 08:10:18;;;;;;;3.07;2.10;;;;;;;-141.29;100.00;58932.97;5078704;28;20446;-74
2022/01/08 08:12:53;;;;;;;2.47;1.30;;;;;;;-141.29;100.00;58932.97;5078433;28;20886;-74
2022/01/08 08:15:25;;;;;;;3.10;2.00;;;;;;;-141.29;100.00;58932.97;5078847;28;20445;-73
2022/01/08 08:17:53;;;;;;;3.33;2.03;;;;;;;-141.29;100.00;58932.97;5071834;28;20446;-75
2022/01/08 08:20:33;;;;;;;4.60;2.17;;;;;;;-141.29;100.00;58932.97;5077313;28;20518;-75
2022/01/08 08:23:01;;;;;;;3.57;2.17;;;;;;;-141.29;100.00;58932.97;5077745;28;20937;-75
2022/01/08 08:25:28;;;;;;;4.23;2.97;;;;;;;-141.29;100.00;58932.97;5076644;28;20493;-75
2022/01/08 08:27:56;;;;;;;3.63;2.13;;;;;;;-141.29;100.00;58932.97;5076063;28;20438;-76
2022/01/08 08:30:24;;;;;;;3.17;1.57;;;;;;;-141.29;100.00;58932.97;5076647;28;20450;-74
2022/01/08 08:32:53;;;;;;;2.50;2.00;;;;;;;-141.29;100.00;58932.97;5077739;28;20600;-75
2022/01/08 08:35:25;;;;;;;3.93;1.93;;;;;;;-141.29;100.00;58932.97;5076349;28;20434;-74
2022/01/08 08:38:07;;;;;;;4.23;2.00;;;;;;;-141.29;100.00;58932.97;5077086;28;20534;-75
2022/01/08 08:40:34;;;;;;;2.10;1.50;;;;;;;-141.29;100.00;58932.97;5076848;28;20448;-75
2022/01/08 08:43:02;;;;;;;2.17;1.20;;;;;;;-141.29;100.00;58932.97;5078187;28;20449;-76
2022/01/08 08:45:41;;;;;;;1.90;1.43;;;;;;;-141.29;100.00;58932.97;5077406;28;20497;-74
2022/01/08 08:48:18;;;;;;;5.83;3.33;;;;;;;-141.29;100.00;58932.97;5076106;28;20478;-74
2022/01/08 08:50:46;;;;;;;3.47;1.83;;;;;;;-141.29;100.00;58932.97;5077021;28;20449;-72
2022/01/08 08:53:20;;;;;;;2.73;2.00;;;;;;;-141.29;100.00;58932.97;5078756;28;20454;-74
2022/01/08 08:55:48;;;;;;;3.37;2.13;;;;;;;-141.29;100.00;58932.97;5078557;28;20426;-72
2022/01/08 08:58:15;;;;;;;2.10;1.50;;;;;;;-141.29;100.00;58932.97;5079989;28;20431;-75
2022/01/08 09:03:26;;;;;;;2.47;1.40;;;;;;;-141.29;100.00;58932.97;5080540;28;20439;-75
2022/01/08 09:05:58;;;;;;;2.33;1.97;;;;;;;-141.29;100.00;58932.97;5077809;28;20502;-73
2022/01/08 09:08:27;;;;;;;2.97;1.90;;;;;;;-141.29;100.00;58932.97;5078141;28;20442;-75
2022/01/08 09:10:59;;;;;;;3.40;2.40;;;;;;;-141.29;100.00;58932.97;5076002;28;20508;-74
2022/01/08 09:13:30;;;;;;;1.97;1.30;;;;;;;-141.29;100.00;58932.97;5077091;28;20442;-73
2022/01/08 09:15:57;;;;;;;4.10;2.10;;;;;;;-141.29;100.00;58932.97;5076500;28;20462;-73
2022/01/08 09:18:36;;;;;;;4.53;2.53;;;;;;;-141.29;100.00;58932.97;5075934;28;20512;-74
2022/01/08 09:21:06;;;;;;;4.13;2.27;;;;;;;-141.29;100.00;58932.97;5076299;28;20431;-75
2022/01/08 09:23:43;;;;;;;2.57;1.90;;;;;;;-141.29;100.00;58932.97;5075808;28;20457;-74
2022/01/08 09:26:11;;;;;;;4.73;2.50;;;;;;;-141.29;100.00;58932.97;5076028;28;20438;-74
2022/01/08 09:28:39;;;;;;;5.83;2.33;;;;;;;-141.29;100.00;58932.97;5075568;28;20453;-74
2022/01/08 09:31:09;;;;;;;7.07;3.07;;;;;;;-141.29;100.00;58932.97;5076597;28;20438;-76
2022/01/08 09:33:38;;;;;;;6.80;3.43;;;;;;;-141.29;100.00;58932.97;5076394;28;20477;-75
2022/01/08 09:36:08;;;;;;;9.47;2.47;;;;;;;-141.29;100.00;58932.97;5075944;28;21026;-73
2022/01/08 09:38:38;;;;;;;3.70;1.90;;;;;;;-141.29;100.00;58932.97;5075955;28;20442;-75
2022/01/08 09:41:06;;;;;;;1.27;1.17;;;;;;;-141.29;100.00;58932.97;5073283;28;20439;-75
2022/01/08 09:43:33;;;;;;;2.53;1.77;;;;;;;-141.29;100.00;58932.97;5074236;28;20945;-73
2022/01/08 09:46:07;;;;;;;6.03;2.87;;;;;;;-141.29;100.00;58932.97;5073887;28;20500;-77
2022/01/08 09:48:34;;;;;;;4.20;1.77;;;;;;;-141.29;100.00;58932.97;5075511;28;20450;-74
2022/01/08 09:51:01;;;;;;;8.53;2.63;;;;;;;-141.29;100.00;58932.97;5074926;28;20450;-74
2022/01/08 09:53:36;;;;;;;2.27;1.80;;;;;;;-141.29;100.00;58932.97;5074215;28;20450;-75
2022/01/08 09:56:08;;;;;;;3.60;1.73;;;;;;;-141.29;100.00;58932.97;5078662;28;20478;-76
2022/01/08 09:58:47;;;;;;;4.87;2.33;;;;;;;-141.29;100.00;58932.97;5075951;28;20465;-75
2022/01/08 10:01:27;;;;;;;4.07;2.00;;;;;;;-141.29;100.00;58932.97;5075845;28;20431;-74
2022/01/08 10:03:56;;;;;;;2.70;1.97;;;;;;;-141.29;100.00;58932.97;5074106;28;20474;-73
2022/01/08 10:09:24;;;;;;;5.50;2.93;;;;;;;-141.29;100.00;58932.97;5076569;28;20439;-73
2022/01/08 10:11:53;;;;;;;5.37;2.27;;;;;;;-141.29;100.00;58932.97;5074823;28;20525;-74
2022/01/08 10:14:39;;;;;;;3.63;2.40;;;;;;;-141.29;100.00;58932.97;5073679;28;20975;-77
2022/01/08 10:17:14;;;;;;;4.17;2.83;;;;;;;-141.29;100.00;58932.97;5074135;28;20533;-74
2022/01/08 10:19:42;;;;;;;4.33;2.93;;;;;;;-141.29;100.00;58932.97;5074407;28;20929;-76
2022/01/08 10:22:19;;;;;;;7.87;3.60;;;;;;;-141.29;100.00;58932.97;5073879;28;20521;-74
2022/01/08 10:24:48;;;;;;;5.30;1.50;;;;;;;-141.29;100.00;58932.97;5073723;28;20589;-75
2022/01/08 10:27:22;;;;;;;4.47;1.90;;;;;;;-141.29;100.00;58932.97;5073650;28;20859;-74
2022/01/08 10:29:55;;;;;;;5.60;2.53;;;;;;;-141.29;100.00;58932.97;5072988;28;20523;-73
2022/01/08 10:32:27;;;;;;;8.20;3.97;;;;;;;-141.29;100.00;58932.97;5074233;28;20463;-74
2022/01/08 10:34:56;;;;;;;6.23;3.73;;;;;;;-141.29;100.00;58932.97;5073733;28;20942;-74
2022/01/08 10:37:23;;;;;;;6.40;2.40;;;;;;;-141.29;100.00;58932.97;5073385;28;20516;-76
2022/01/08 10:39:58;;;;;;;6.80;2.80;;;;;;;-141.29;100.00;58932.97;5073021;28;20496;-75
2022/01/08 10:42:27;;;;;;;6.00;2.50;;;;;;;-141.29;100.00;58932.97;5072299;28;20454;-74
2022/01/08 10:44:54;;;;;;;8.43;3.30;;;;;;;-141.29;100.00;58932.97;5071072;28;20585;-73
2022/01/08 10:47:23;;;;;;;7.30;3.70;;;;;;;-141.29;100.00;58932.97;5072075;28;20840;-74
2022/01/08 10:50:02;;;;;;;8.43;3.90;;;;;;;-141.29;100.00;58932.97;5071205;28;20453;-74
2022/01/08 10:52:41;;;;;;;5.73;2.97;;;;;;;-141.29;100.00;58932.97;5072629;28;20458;-75
2022/01/08 10:55:09;;;;;;;5.67;2.77;;;;;;;-141.29;100.00;58932.97;5072840;28;20508;-74
2022/01/08 10:57:40;;;;;;;6.90;2.80;;;;;;;-141.29;100.00;58932.97;5072994;28;20442;-75
2022/01/08 11:00:09;;;;;;;2.33;1.90;;;;;;;-141.29;100.00;58932.97;5073330;28;20870;-74
2022/01/08 11:02:39;;;;;;;4.43;2.10;;;;;;;-141.29;100.00;58932.97;5073774;28;20450;-76
2022/01/08 11:05:08;;;;;;;3.03;2.10;;;;;;;-141.29;100.00;58932.97;5072375;28;20484;-75
2022/01/08 11:07:37;;;;;;;2.30;1.97;;;;;;;-141.29;100.00;58932.97;5073013;28;20957;-73
2022/01/08 11:10:11;;;;;;;2.67;2.20;;;;;;;-141.29;100.00;58932.97;5072497;28;20974;-74
2022/01/08 11:12:41;;;;;;;2.90;2.10;;;;;;;-141.29;100.00;58932.97;5073427;28;20450;-72
2022/01/08 11:15:35;;;;;;;6.80;2.77;;;;;;;-141.29;100.00;58932.97;5072827;28;20466;-75
2022/01/08 11:18:03;;;;;;;6.73;2.83;;;;;;;-141.29;100.00;58932.97;5076101;28;20521;-74
2022/01/08 11:20:39;;;;;;;3.73;2.60;;;;;;;-141.29;100.00;58932.97;5076539;28;20450;-72
2022/01/08 11:23:08;;;;;;;5.03;2.70;;;;;;;-141.29;100.00;58932.97;5076051;28;20473;-75
2022/01/08 11:25:39;;;;;;;2.37;1.90;;;;;;;-141.29;100.00;58932.97;5075547;28;20486;-75
2022/01/08 11:28:11;;;;;;;3.47;1.87;;;;;;;-141.29;100.00;58932.97;5074422;28;20431;-75
2022/01/08 11:30:41;;;;;;;2.70;1.87;;;;;;;-141.29;100.00;58932.97;5074960;28;20449;-75
2022/01/08 11:33:14;;;;;;;2.20;1.53;;;;;;;-141.29;100.00;58932.97;5075808;28;20814;-75
2022/01/08 11:35:45;;;;;;;3.63;2.50;;;;;;;-141.29;100.00;58932.97;5076884;28;20447;-74
2022/01/08 11:38:15;;;;;;;7.67;4.53;;;;;;;-141.29;100.00;58932.97;5075489;28;20554;-74
2022/01/08 11:40:44;;;;;;;6.30;4.30;;;;;;;-141.29;100.00;58932.97;5072131;28;20441;-74
2022/01/08 11:43:15;;;;;;;9.23;4.03;;;;;;;-141.29;100.00;58932.97;5071569;28;20450;-72
2022/01/08 11:45:48;;;;;;;6.50;3.30;;;;;;;-141.29;100.00;58932.97;5071314;28;21016;-74
2022/01/08 11:48:20;;;;;;;5.80;3.40;;;;;;;-141.29;100.00;58932.97;5071614;28;20474;-74